Terminal Aerodrome Forecast
Issued by NWS

Current Version | Previous Version | Text Only | Print | Product List | Glossary On
Versions: 1 2 3 4 5 6 7 8 9 10 11 12 13 14 15 16 17 18 19 20 21 22 23 24 25 26 27 28
000 FTUS41 KBOX 221131 TAFHYA TAF KHYA 221131Z 2212/2312 26005KT P6SM SKC FM221500 25012G20KT P6SM SCT250 FM221900 24016G28KT P6SM FEW150 FM230000 24017G34KT P6SM BKN090=

USA.gov is the U.S. government's official web portal to all federal, state and local government web resources and services.